Terminal Aerodrome Forecast
Issued by NWS

Home | Current Version | Previous Version | Text Only | Print | Product List | Glossary On
Versions: 1 2 3 4 5 6 7 8 9 10 11 12 13 14 15 16 17 18 19 20
740
FTUS43 KILX 131725
TAFBMI
TAF
KBMI 131725Z 1318/1418 23020G28KT P6SM BKN120
     FM132100 28024G38KT P6SM VCSH BKN030
     FM140300 32020G30KT P6SM OVC030
     FM140500 32015G25KT P6SM BKN050
     FM140700 34010KT P6SM BKN050=

USA.gov is the U.S. government's official web portal to all federal, state and local government web resources and services.